Coulee Dam, WA (99116)

10:45 AM PDT on July 07, 2015 (GMT -0700)
Grand Coulee | | Change Station
CLOSE
Current Station
Personal Weather Station
Location: Grand Coulee, WA
Elevation: 1503 ft
Nearby Weather Stations

Elev 1503 ft 47.94 °N, 119.01 °W | Updated 9 seconds ago

Clear
Clear
91.2 °F
Feels Like 88 °F
N
4.2
Wind Variable Wind from NNE
Gusts 9.9 mph

Today
High -- | Low -- °F
--% Chance of Precip.
Yesterday
High -- | Low -- °F
Precip. -- in
5:04 AM 8:56 PM
Waning Gibbous, 63% visible
Pressure 29.88 in
Visibility 4.0 miles
Clouds Scattered Clouds 11000 ft
Heat Index 88 °F
Dew Point 52 °F
Humidity 26%
Rainfall 0.00 in
Snow Depth Not available.
UV 5 out of 12
Pollen 5.20 out of 12
Air Quality Not available.
Flu Activity Not available.
METAR KOMK 071653Z AUTO 01012G17KT 4SM HZ SCT110 28/07 A2991 RMK AO2 SLP119 T02830067

More Conditions Fewer Conditions

Pressure 29.88 in
Visibility 4.0 miles
Clouds Scattered Clouds 11000 ft
Heat Index 88 °F
Dew Point 52 °F
Humidity 26%
Rainfall 0.00 in
Snow Depth Not available.
UV 5 out of 12
Pollen 5.20 out of 12
Air Quality Not available.
Flu Activity Not available.
METAR KOMK 071653Z AUTO 01012G17KT 4SM HZ SCT110 28/07 A2991 RMK AO2 SLP119 T02830067

More Conditions Fewer Conditions

10-Day Weather Forecast

×

Almanac

Astronomy

Jul. 07, 2015 Rise Set
Actual Time
Civil Twilight
Nautical Twilight
Astronomical Twilight
Moon
Length of Visible Light
Length of Day
Tomorrow will be .
, % of the Moon is Illuminated

Today's Extremes

State Highs State Lows

Community

WunderPhotos

Upload Photos

1,835,858 photos uploaded!

WunderBlogs® & News

Nearby

Air Quality

  Air Quality AQ Index Pollutant
Not available.

Snow Depth

Station Depth Elevation

Earthquake Activity

City Distance Mag. Time & Date
Minimum magnitude displayed is 2.5.

Coastal Water Temperatures

Place Temperature

Stations

Nearby Weather Stations

Station Location Temp. Windchill Dew Point Humidity Wind Precip. Elev Updated Type